Latest Weather Observations for Montague Island

IDN60901

Issued at 10:11 am EDT Sunday 1 March 2015 (issued every 10 minutes, with the page automatically refreshed every 10 minutes)

About weather observations | Map of Canberra area stations | Latest observations for Canberra area | Other Formats
Station Details ID: 069017 Name: MONTAGUE ISLAND LIGHTHOUSE Lat: -36.25 Lon: 150.23 Height: 52.0 m
Data from the previous 72 hours. | See also: Recent months at Montague Island
Date/Time
EDT
Tmp

°C
App
Tmp
°C
Dew
Point
°C
Rel
Hum
%
Delta-T

°C
Wind Press
QNH
hPa
Press
MSL
hPa
Rain
since
9 am
mm
Dir
 
Spd
km/h
Gust
km/h
Spd
kts
Gust
kts
01/10:00am 21.4 19.2 18.6 84 1.8 SSW 28 33 15 18 1005.8 1005.6 0.0
01/09:30am 20.9 19.8 18.7 87 1.4 S 22 26 12 14 1004.8 1004.6 0.0
01/09:00am 20.7 19.5 18.5 87 1.4 SSW 22 26 12 14 1005.0 1004.8 0.0
01/08:30am 21.2 18.5 18.4 84 1.8 SSW 30 33 16 18 1004.5 1004.3 0.0
01/08:00am 21.1 18.8 18.5 85 1.6 SSW 28 32 15 17 1004.3 1004.1 0.0
01/07:30am 20.6 17.5 18.9 90 1.1 SSW 33 43 18 23 1004.3 1004.1 0.0
01/07:00am 19.7 16.3 18.2 91 0.9 SW 33 43 18 23 1003.7 1003.5 0.0
01/06:30am 19.7 17.6 19.0 96 0.4 SW 28 33 15 18 1003.7 1003.5 0.0
01/05:30am 20.7 20.1 20.4 98 0.2 N 24 30 13 16 1001.9 1001.7 0.0
01/05:00am 20.9 18.9 20.7 99 0.1 N 32 39 17 21 1001.4 1001.2 0.0
01/04:30am 20.5 18.7 20.3 99 0.1 N 30 33 16 18 1001.8 1001.6 0.0
01/04:00am 20.6 19.6 20.4 99 0.1 N 26 32 14 17 1002.1 1001.9 0.0
01/03:30am 20.4 19.6 20.1 98 0.2 N 24 30 13 16 1002.3 1002.1 0.0
01/03:00am 20.7 19.3 20.5 99 0.1 N 28 35 15 19 1002.6 1002.4 0.0
01/02:30am 20.3 19.8 20.0 98 0.2 N 22 26 12 14 1002.9 1002.7 0.0
01/02:00am 20.5 20.6 20.0 97 0.3 N 19 22 10 12 1003.5 1003.3 0.0
01/01:30am 20.8 20.9 20.3 97 0.3 N 20 24 11 13 1004.1 1003.9 0.0
01/01:00am 20.9 20.3 20.4 97 0.3 N 24 28 13 15 1004.3 1004.1 0.0
01/12:30am 21.1 21.2 20.4 96 0.5 N 20 28 11 15 1004.8 1004.6 0.0
01/12:00am 21.6 19.6 20.8 95 0.5 NNE 32 35 17 19 1005.0 1004.8 0.0
 
Date/Time
EDT
Tmp

°C
App
Tmp
°C
Dew
Point
°C
Rel
Hum
%
Delta-T

°C
Wind Press
QNH
hPa
Press
MSL
hPa
Rain
since
9 am
mm
Dir
 
Spd
km/h
Gust
km/h
Spd
kts
Gust
kts
28/11:30pm 21.8 19.6 20.8 94 0.7 NNE 33 39 18 21 1005.2 1005.0 0.0
28/11:00pm 21.9 19.4 20.9 94 0.7 NNE 35 43 19 23 1005.3 1005.1 0.0
28/10:30pm 22.1 19.1 20.7 92 0.9 NNE 37 44 20 24 1005.8 1005.6 0.0
28/10:00pm 22.2 18.7 20.5 90 1.1 NNE 39 46 21 25 1005.8 1005.6 0.0
28/09:30pm 22.3 19.8 20.2 88 1.4 N 33 46 18 25 1006.2 1006.0 0.0
28/08:30pm 22.4 18.8 20.9 91 1.0 NNE 41 46 22 25 1005.9 1005.7 0.0
28/08:00pm 22.5 18.8 20.8 90 1.1 NNE 41 50 22 27 1005.7 1005.5 0.0
28/07:30pm 22.6 18.8 20.5 88 1.4 NNE 41 48 22 26 1005.6 1005.4 0.0
28/07:00pm 22.7 19.1 20.2 86 1.6 NNE 39 48 21 26 1005.4 1005.2 0.0
28/06:30pm 22.9 19.3 20.1 84 1.8 NNE 39 50 21 27 1005.3 1005.1 0.0
28/06:00pm 23.1 19.5 20.1 83 1.9 NNE 39 46 21 25 1005.4 1005.2 0.0
28/05:30pm 23.2 19.1 20.0 82 2.1 NNE 41 48 22 26 1005.3 1005.1 0.0
28/05:00pm 23.3 18.8 19.9 81 2.2 NNE 43 48 23 26 1005.3 1005.1 0.0
28/04:30pm 23.3 18.8 19.9 81 2.2 NNE 43 50 23 27 1005.6 1005.4 0.0
28/04:00pm 23.5 19.9 19.4 78 2.6 NNE 37 46 20 25 1005.8 1005.6 0.0
28/03:30pm 23.5 21.0 20.2 82 2.1 NNE 33 43 18 23 1006.0 1005.8 0.0
28/03:00pm 23.6 20.9 20.5 83 2.0 NNE 35 43 19 23 1006.5 1006.3 0.0
28/02:30pm 23.8 22.2 20.7 83 2.0 NNE 30 35 16 19 1006.9 1006.7 0.0
28/02:00pm 23.9 23.1 20.8 83 2.0 NNE 26 33 14 18 1007.3 1007.1 0.0
28/01:30pm 23.6 23.8 20.5 83 2.0 NNE 20 26 11 14 1007.7 1007.5 0.0
28/01:00pm 23.1 22.7 20.1 83 1.9 NNE 22 28 12 15 1008.1 1007.9 0.0
28/12:30pm 23.4 24.0 20.2 82 2.1 NNE 17 22 9 12 1008.7 1008.5 0.0
28/12:00pm 22.2 23.3 19.7 86 1.6 NNW 13 17 7 9 1009.4 1009.2 0.0
28/11:30am 21.4 21.9 19.3 88 1.3 N 15 19 8 10 1009.1 1008.9 0.0
28/11:00am 21.0 21.6 19.5 91 1.0 NNE 15 20 8 11 1009.3 1009.1 0.0
28/10:30am 22.1 23.7 20.0 88 1.4 NNE 11 17 6 9 1009.4 1009.2 0.0
28/10:00am 21.3 23.5 19.6 90 1.1 NNE 7 11 4 6 1010.0 1009.8 0.0
28/09:30am 21.4 24.4 19.3 88 1.3 ENE 2 4 1 2 1010.0 1009.8 0.0
28/09:00am 21.1 23.8 19.4 90 1.1 SSW 4 6 2 3 1010.0 1009.8 0.0
28/08:30am 20.8 23.5 19.5 92 0.8 S 4 6 2 3 1009.9 1009.7 0.0
28/08:00am 20.9 24.1 19.7 93 0.8 SSW 2 4 1 2 1009.8 1009.6 0.0
28/07:30am 20.6 23.0 19.6 94 0.6 SW 6 7 3 4 1009.5 1009.3 0.0
28/07:00am 20.4 22.5 19.4 94 0.6 SW 7 9 4 5 1009.3 1009.1 0.0
28/06:30am 20.6 22.3 19.4 93 0.8 WSW 9 11 5 6 1009.0 1008.8 0.0
28/06:00am 21.1 23.6 19.9 93 0.8 N 6 9 3 5 1008.8 1008.6 0.0
28/05:30am 21.1 23.1 19.9 93 0.8 NE 9 11 5 6 1008.6 1008.4 0.0
28/05:00am 21.3 24.7 20.1 93 0.8 ENE 2 4 1 2 1008.9 1008.7 0.0
28/04:30am 21.3 23.8 19.9 92 0.9 SSW 6 11 3 6 1009.0 1008.8 0.0
28/04:00am 21.3 24.3 20.1 93 0.8 ESE 4 6 2 3 1009.2 1009.0 0.0
28/03:30am 21.3 24.3 20.1 93 0.8 SE 4 6 2 3 1009.4 1009.2 0.0
28/03:00am 21.3 24.3 20.1 93 0.8 SE 4 6 2 3 1009.5 1009.3 0.0
28/02:30am 21.0 23.4 19.7 92 0.8 S 6 6 3 3 1009.5 1009.3 0.0
28/02:00am 21.1 23.9 19.6 91 1.0 SW 4 6 2 3 1009.8 1009.6 0.0
28/01:30am 21.2 23.4 19.7 91 1.0 W 7 7 4 4 1010.0 1009.8 0.0
28/01:00am 21.7 23.5 20.3 92 0.9 NW 11 13 6 7 1010.0 1009.8 0.0
28/12:30am 21.7 22.7 20.3 92 0.9 N 15 19 8 10 1010.1 1009.9 0.0
28/12:00am 21.7 22.5 19.8 89 1.2 N 15 20 8 11 1010.1 1009.9 0.0
 
Date/Time
EDT
Tmp

°C
App
Tmp
°C
Dew
Point
°C
Rel
Hum
%
Delta-T

°C
Wind Press
QNH
hPa
Press
MSL
hPa
Rain
since
9 am
mm
Dir
 
Spd
km/h
Gust
km/h
Spd
kts
Gust
kts
27/11:30pm 21.9 24.1 19.3 85 1.7 NNE 6 9 3 5 1010.6 1010.5 0.0
27/11:00pm 22.0 24.9 19.0 83 1.9 N 2 6 1 3 1010.9 1010.8 0.0
27/10:30pm 21.9 24.1 19.1 84 1.8 NNE 6 11 3 6 1010.7 1010.6 0.0
27/10:00pm 21.6 24.2 19.2 86 1.5 SW 4 7 2 4 1011.0 1010.9 0.0
27/09:30pm 22.1 24.7 19.3 84 1.8 NW 4 6 2 3 1010.9 1010.8 0.0
27/09:00pm 22.2 23.1 19.2 83 1.9 NNE 13 15 7 8 1010.4 1010.3 0.0
27/08:30pm 22.1 23.8 19.3 84 1.8 NNE 9 13 5 7 1010.0 1009.8 0.0
27/08:00pm 22.2 23.5 19.4 84 1.8 NNE 11 13 6 7 1009.6 1009.4 0.0
27/07:30pm 22.3 22.8 19.3 83 1.9 NNE 15 17 8 9 1009.2 1009.0 0.0
27/07:00pm 22.6 22.5 18.8 79 2.4 NNE 17 22 9 12 1009.0 1008.8 0.0
27/06:30pm 22.7 22.2 18.7 78 2.5 NE 19 20 10 11 1008.7 1008.5 0.0
27/06:00pm 22.9 22.5 18.9 78 2.5 NE 19 24 10 13 1008.5 1008.3 0.0
27/05:30pm 23.2 22.7 19.2 78 2.6 NE 20 28 11 15 1008.2 1008.0 0.0
27/05:00pm 23.3 22.3 18.8 76 2.9 NE 22 30 12 16 1008.0 1007.8 0.0
27/04:30pm 23.4 22.0 18.7 75 3.0 NE 24 30 13 16 1008.2 1008.0 0.0
27/04:00pm 23.2 20.9 18.5 75 3.0 NE 28 32 15 17 1008.2 1008.0 0.0
27/03:30pm 23.3 20.8 18.8 76 2.9 NE 30 33 16 18 1008.4 1008.2 0.0
27/03:00pm 23.1 21.1 19.1 78 2.6 NE 28 35 15 19 1008.8 1008.6 0.0
27/02:30pm 22.6 20.7 18.6 78 2.5 ENE 26 32 14 17 1009.3 1009.1 0.0
27/02:00pm 23.1 21.3 18.8 77 2.7 ENE 26 30 14 16 1009.6 1009.4 0.0
27/01:30pm 22.6 21.9 18.2 76 2.8 ENE 19 22 10 12 1010.2 1010.0 0.0
27/01:00pm 22.7 22.3 18.0 75 2.9 NE 17 20 9 11 1010.3 1010.2 0.0
27/12:30pm 23.5 24.2 19.6 79 2.5 NNE 15 19 8 10 1010.6 1010.5 0.0
27/12:00pm 21.9 23.0 17.9 78 2.5 NE 9 13 5 7 1010.9 1010.8 0.0
27/11:30am 22.2 23.9 18.0 77 2.6 ENE 6 9 3 5 1011.2 1011.1 0.0
27/11:00am 22.0 23.6 17.8 77 2.6 E 6 9 3 5 1011.0 1010.9 0.0
27/10:30am 21.0 23.4 18.0 83 1.9 E 2 6 1 3 1011.1 1011.0 0.0
27/10:00am 20.6 22.2 17.8 84 1.7 SSW 6 9 3 5 1011.2 1011.1 0.0
27/09:30am 20.3 21.4 17.9 86 1.5 SSW 9 13 5 7 1010.9 1010.8 0.0
27/09:00am 20.3 21.6 17.5 84 1.7 S 7 11 4 6 1010.7 1010.6 0.0
27/08:30am 19.9 21.0 17.9 88 1.2 SSW 9 11 5 6 1010.7 1010.6 0.0
27/08:00am 19.4 20.5 17.9 91 0.9 S 9 11 5 6 1010.7 1010.6 0.0
27/07:30am 19.3 20.2 18.3 94 0.6 SW 11 13 6 7 1010.5 1010.4 0.0
27/07:00am 19.4 20.4 18.6 95 0.5 SW 11 13 6 7 1010.3 1010.2 0.0
27/06:30am 19.8 21.8 19.1 96 0.4 SW 7 9 4 5 1009.8 1009.6 0.0
27/06:00am 19.7 21.2 18.9 95 0.5 S 9 9 5 5 1009.6 1009.4 0.0
27/05:30am 19.8 20.4 18.6 93 0.7 SSW 13 17 7 9 1009.6 1009.4 0.0
27/05:00am 19.8 20.7 18.5 92 0.8 SSW 11 11 6 6 1009.7 1009.5 0.0
27/04:30am 19.8 21.5 18.5 92 0.8 S 7 9 4 5 1009.7 1009.5 0.0
27/04:00am 20.1 21.9 18.4 90 1.1 WSW 6 7 3 4 1009.7 1009.5 0.0
27/03:30am 20.0 21.8 18.3 90 1.1 WSW 6 6 3 3 1009.7 1009.5 0.0
27/03:00am 20.0 21.8 18.3 90 1.1 WNW 6 7 3 4 1009.8 1009.6 0.0
27/02:30am 20.3 22.0 18.4 89 1.2 W 7 9 4 5 1009.9 1009.7 0.0
27/02:00am 20.6 22.3 18.5 88 1.3 WSW 7 7 4 4 1010.0 1009.8 0.0
27/01:30am 21.0 22.7 18.6 86 1.5 W 7 9 4 5 1010.3 1010.2 0.0
27/01:00am 20.9 22.2 17.5 81 2.1 ESE 7 9 4 5 1010.6 1010.5 0.0
27/12:30am 21.0 21.8 17.2 79 2.3 ESE 9 13 5 7 1010.6 1010.5 0.0
27/12:00am 20.9 20.8 16.9 78 2.4 SE 13 15 7 8 1010.7 1010.6 0.0
 
Date/Time
EDT
Tmp

°C
App
Tmp
°C
Dew
Point
°C
Rel
Hum
%
Delta-T

°C
Wind Press
QNH
hPa
Press
MSL
hPa
Rain
since
9 am
mm
Dir
 
Spd
km/h
Gust
km/h
Spd
kts
Gust
kts
26/11:30pm 21.1 22.7 18.3 84 1.7 E 7 11 4 6 1010.8 1010.7 0.0
26/11:00pm 21.2 21.2 18.2 83 1.9 ESE 15 17 8 9 1010.8 1010.7 0.0
26/10:30pm 21.2 20.5 18.2 83 1.9 ESE 19 22 10 12 1010.9 1010.8 0.0
26/10:00pm 21.2 20.8 18.0 82 2.0 ESE 17 19 9 10 1010.9 1010.8 0.0
26/09:30pm 21.2 21.3 18.4 84 1.8 E 15 17 8 9 1010.7 1010.6 0.0
26/09:00pm 21.3 22.2 19.2 88 1.3 SE 13 17 7 9 1010.5 1010.4 0.0
26/08:30pm 21.1 22.3 19.0 88 1.3 SSE 11 15 6 8 1009.7 1009.5 0.0
26/08:00pm 21.1 21.3 18.5 85 1.6 S 15 19 8 10 1009.3 1009.1 0.0
26/07:30pm 21.2 21.5 18.0 82 2.0 SSW 13 17 7 9 1008.9 1008.7 0.0
26/07:00pm 21.6 22.8 19.0 85 1.6 SSW 11 15 6 8 1008.4 1008.2 0.0
26/06:30pm 21.9 22.9 18.7 82 2.0 SSW 11 13 6 7 1007.9 1007.7 0.0
26/06:00pm 21.9 23.1 18.3 80 2.3 S 9 13 5 7 1007.6 1007.4 0.0
26/05:30pm 21.5 22.7 18.3 82 2.0 SSE 9 11 5 6 1007.2 1007.0 0.0
26/05:00pm 21.7 22.7 17.7 78 2.5 SSE 9 11 5 6 1007.1 1006.9 0.0
26/04:30pm 22.1 23.4 17.2 74 3.0 ESE 6 7 3 4 1007.0 1006.8 0.0
26/04:00pm 24.1 25.5 16.4 62 4.7 W 4 7 2 4 1006.9 1006.7 0.0
26/03:30pm 22.6 23.9 17.5 73 3.2 NW 7 9 4 5 1007.0 1006.8 0.0
26/03:00pm 21.8 23.0 17.4 76 2.7 NNW 7 9 4 5 1007.3 1007.1 0.0
26/02:30pm 21.8 22.4 17.6 77 2.6 NNW 11 13 6 7 1007.5 1007.3 0.0
26/02:00pm 21.6 21.7 17.4 77 2.6 NNW 13 19 7 10 1007.7 1007.5 0.0
26/01:30pm 21.5 21.5 17.3 77 2.6 N 13 19 7 10 1007.7 1007.5 0.0
26/01:00pm 21.7 21.4 17.3 76 2.7 N 15 20 8 11 1007.7 1007.5 0.0
26/12:30pm 22.4 21.9 17.8 75 2.9 N 17 24 9 13 1008.0 1007.8 0.0
26/12:00pm 21.2 19.7 16.4 74 2.9 NNE 19 22 10 12 1008.3 1008.1 0.0
26/11:30am 20.8 20.6 16.6 77 2.5 N 13 19 7 10 1008.6 1008.4 0.0
26/11:00am 20.6 19.7 16.8 79 2.3 NNW 17 20 9 11 1009.1 1008.9 0.0
26/10:30am 20.6 19.7 16.8 79 2.3 N 17 22 9 12 1009.1 1008.9 0.0

Latest Capital City Observations: Canberra | Sydney | Melbourne | Brisbane | Adelaide | Perth | Hobart | Darwin

Other Formats:

Comma delimited format used in spreadsheet applications
http://www.bom.gov.au/fwo/IDN60903/IDN60903.94939.axf

JavaScript Object Notation format (JSON) in row-major order
http://www.bom.gov.au/fwo/IDN60903/IDN60903.94939.json